createdAt,value
2018-12-08T00:01:58.360Z,4.67
2018-12-08T00:04:27.128Z,4.37
2018-12-08T00:06:55.273Z,4.97
2018-12-08T00:09:23.771Z,4.50
2018-12-08T00:11:52.705Z,4.93
2018-12-08T00:14:21.287Z,4.93
2018-12-08T00:16:49.846Z,4.63
2018-12-08T00:19:18.515Z,4.27
2018-12-08T00:21:47.017Z,4.77
2018-12-08T00:24:15.675Z,4.97
2018-12-08T00:26:44.304Z,4.10
2018-12-08T00:29:12.828Z,4.27
2018-12-08T00:31:44.763Z,4.13
2018-12-08T00:34:13.753Z,4.50
2018-12-08T00:36:42.272Z,4.40
2018-12-08T00:39:10.816Z,4.13
2018-12-08T00:41:39.428Z,4.80
2018-12-08T00:44:08.067Z,3.80
2018-12-08T00:46:36.927Z,4.23
2018-12-08T00:49:05.604Z,4.20
2018-12-08T00:51:34.091Z,4.13
2018-12-08T00:54:07.107Z,3.93
2018-12-08T00:56:35.695Z,4.07
2018-12-08T00:59:04.252Z,3.73
2018-12-08T01:01:33.322Z,3.63
2018-12-08T01:04:01.804Z,3.53
2018-12-08T01:06:30.129Z,4.13
2018-12-08T01:08:59.171Z,4.33
2018-12-08T01:11:27.496Z,4.67
2018-12-08T01:13:56.095Z,3.73
2018-12-08T01:16:25.185Z,5.07
2018-12-08T01:18:53.947Z,3.60
2018-12-08T01:21:22.407Z,4.67
2018-12-08T01:23:51.147Z,4.17
2018-12-08T01:26:19.649Z,4.10
2018-12-08T01:28:48.153Z,4.27
2018-12-08T01:31:17.127Z,3.60
2018-12-08T01:33:45.772Z,3.83
2018-12-08T01:36:14.474Z,3.93
2018-12-08T01:38:43.491Z,4.50
2018-12-08T01:41:11.819Z,3.67
2018-12-08T01:43:40.263Z,4.13
2018-12-08T01:46:09.140Z,3.70
2018-12-08T01:48:37.464Z,3.87
2018-12-08T01:51:06.108Z,3.80
2018-12-08T01:53:34.531Z,4.10
2018-12-08T01:56:03.414Z,3.47
2018-12-08T01:58:31.894Z,3.70
2018-12-08T02:01:00.484Z,3.90
2018-12-08T02:03:29.041Z,3.93
2018-12-08T02:05:57.907Z,3.63
2018-12-08T02:08:26.419Z,4.00
2018-12-08T02:10:55.096Z,4.23
2018-12-08T02:13:23.790Z,4.03
2018-12-08T02:15:52.141Z,4.00
2018-12-08T02:18:20.755Z,4.33
2018-12-08T02:20:49.258Z,4.67
2018-12-08T02:23:18.308Z,4.03
2018-12-08T02:25:46.916Z,4.20
2018-12-08T02:28:15.496Z,3.93
2018-12-08T02:30:45.363Z,4.43
2018-12-08T02:33:13.792Z,3.83
2018-12-08T02:35:42.205Z,4.23
2018-12-08T02:38:11.217Z,4.17
2018-12-08T02:40:39.554Z,4.13
2018-12-08T02:43:08.101Z,4.10
2018-12-08T02:45:36.515Z,3.60
2018-12-08T02:48:05.262Z,3.50
2018-12-08T02:50:33.841Z,4.27
2018-12-08T02:53:02.482Z,3.67
2018-12-08T02:55:30.996Z,3.50
2018-12-08T02:57:59.502Z,3.70
2018-12-08T03:00:28.386Z,3.90
2018-12-08T03:02:56.877Z,4.33
2018-12-08T03:05:25.394Z,3.43
2018-12-08T03:07:54.262Z,3.73
2018-12-08T03:10:22.892Z,4.17
2018-12-08T03:12:51.388Z,3.63
2018-12-08T03:15:20.084Z,4.23
2018-12-08T03:17:48.563Z,3.43
2018-12-08T03:20:17.455Z,4.07
2018-12-08T03:22:45.893Z,4.30
2018-12-08T03:25:15.347Z,3.67
2018-12-08T03:27:43.905Z,4.20
2018-12-08T03:30:12.489Z,3.50
2018-12-08T03:32:41.049Z,3.90
2018-12-08T03:35:09.407Z,4.03
2018-12-08T03:37:37.455Z,3.33
2018-12-08T03:40:05.646Z,4.60
2018-12-08T03:42:34.576Z,3.80
2018-12-08T03:45:03.043Z,4.47
2018-12-08T03:47:31.523Z,4.07
2018-12-08T03:49:59.935Z,3.43
2018-12-08T03:52:28.728Z,3.57
2018-12-08T03:54:57.178Z,3.73
2018-12-08T03:57:25.857Z,4.03
2018-12-08T03:59:54.687Z,4.13
2018-12-08T04:02:23.220Z,3.53
2018-12-08T04:04:52.320Z,3.50
2018-12-08T04:07:21.044Z,4.03
2018-12-08T04:09:49.474Z,4.00
2018-12-08T04:12:17.947Z,4.13
2018-12-08T04:14:47.097Z,3.77
2018-12-08T04:17:15.739Z,3.83
2018-12-08T04:19:44.056Z,3.97
2018-12-08T04:22:13.152Z,4.20
2018-12-08T04:24:41.619Z,4.03
2018-12-08T04:27:09.699Z,3.97
2018-12-08T04:29:38.755Z,3.43
2018-12-08T04:32:06.932Z,3.97
2018-12-08T04:34:35.441Z,3.70
2018-12-08T04:37:04.475Z,4.20
2018-12-08T04:39:33.111Z,3.93
2018-12-08T04:42:01.588Z,3.50
2018-12-08T04:44:30.743Z,4.53
2018-12-08T04:46:58.832Z,4.30
2018-12-08T04:49:27.199Z,4.10
2018-12-08T04:51:56.139Z,4.50
2018-12-08T04:54:24.571Z,4.03
2018-12-08T04:56:53.110Z,3.70
2018-12-08T04:59:22.117Z,4.27
2018-12-08T05:01:50.174Z,4.53
2018-12-08T05:04:18.666Z,4.13
2018-12-08T05:06:47.695Z,3.93
2018-12-08T05:09:16.175Z,4.13
2018-12-08T05:11:44.708Z,4.00
2018-12-08T05:14:13.515Z,4.00
2018-12-08T05:16:41.920Z,4.90
2018-12-08T05:19:10.228Z,5.00
2018-12-08T05:21:38.879Z,5.50
2018-12-08T05:24:07.775Z,5.43
2018-12-08T05:26:36.200Z,5.07
2018-12-08T05:29:05.019Z,4.73
2018-12-08T05:31:33.500Z,5.20
2018-12-08T05:34:02.283Z,6.17
2018-12-08T05:36:30.803Z,5.00
2018-12-08T05:38:59.743Z,6.07
2018-12-08T05:41:28.425Z,4.67
2018-12-08T05:43:57.171Z,5.53
2018-12-08T05:46:25.731Z,5.50
2018-12-08T05:48:54.071Z,5.60
2018-12-08T05:51:22.652Z,4.47
2018-12-08T05:53:51.290Z,5.90
2018-12-08T05:56:19.776Z,5.20
2018-12-08T05:58:48.227Z,5.57
2018-12-08T06:01:17.133Z,5.67
2018-12-08T06:03:45.632Z,5.87
2018-12-08T06:06:14.316Z,5.83
2018-12-08T06:08:43.282Z,5.27
2018-12-08T06:11:11.762Z,5.73
2018-12-08T06:13:40.367Z,5.83
2018-12-08T06:16:09.188Z,6.67
2018-12-08T06:18:37.603Z,6.40
2018-12-08T06:21:06.156Z,6.83
2018-12-08T06:23:35.217Z,6.27
2018-12-08T06:26:05.495Z,6.63
2018-12-08T06:28:33.996Z,6.73
2018-12-08T06:31:02.636Z,6.57
2018-12-08T06:33:31.172Z,7.73
2018-12-08T06:35:59.254Z,7.07
2018-12-08T06:38:28.080Z,7.07
2018-12-08T06:40:56.600Z,7.97
2018-12-08T06:43:25.773Z,8.23
2018-12-08T06:45:54.839Z,8.27
2018-12-08T06:48:23.432Z,7.63
2018-12-08T06:50:52.055Z,7.53
2018-12-08T06:53:20.999Z,8.23
2018-12-08T06:55:49.423Z,8.07
2018-12-08T06:58:18.167Z,7.73
2018-12-08T07:00:46.855Z,7.80
2018-12-08T07:03:15.540Z,8.07
2018-12-08T07:05:44.116Z,7.53
2018-12-08T07:08:13.004Z,7.50
2018-12-08T07:10:41.364Z,7.50
2018-12-08T07:13:10.344Z,8.43
2018-12-08T07:15:39.343Z,8.00
2018-12-08T07:18:07.998Z,8.80
2018-12-08T07:20:36.693Z,8.77
2018-12-08T07:23:06.071Z,8.30
2018-12-08T07:25:34.164Z,8.70
2018-12-08T07:28:02.696Z,8.00
2018-12-08T07:30:31.700Z,8.03
2018-12-08T07:33:01.823Z,7.50
2018-12-08T07:35:29.984Z,7.63
2018-12-08T07:37:58.980Z,7.40
2018-12-08T07:40:27.030Z,6.70
2018-12-08T07:43:17.556Z,7.10
2018-12-08T07:45:46.470Z,6.40
2018-12-08T07:48:15.256Z,7.60
2018-12-08T07:50:45.663Z,7.17
2018-12-08T07:53:17.955Z,7.53
2018-12-08T07:55:48.212Z,6.63
2018-12-08T07:58:16.805Z,8.27
2018-12-08T08:00:46.973Z,7.83
2018-12-08T08:03:15.717Z,7.37
2018-12-08T08:05:44.492Z,8.10
2018-12-08T08:08:13.019Z,8.60
2018-12-08T08:10:41.488Z,8.10
2018-12-08T08:13:09.574Z,8.67
2018-12-08T08:15:37.795Z,8.93
2018-12-08T08:18:05.909Z,8.67
2018-12-08T08:20:33.976Z,9.77
2018-12-08T08:23:02.635Z,9.13
2018-12-08T08:25:30.921Z,9.57
2018-12-08T08:28:01.183Z,9.93
2018-12-08T08:30:29.561Z,9.77
2018-12-08T08:32:58.042Z,9.83
2018-12-08T08:35:27.060Z,8.93
2018-12-08T08:37:56.228Z,9.13
2018-12-08T08:40:24.444Z,9.50
2018-12-08T08:42:53.020Z,9.83
2018-12-08T08:45:21.088Z,16.07
2018-12-08T08:47:49.516Z,8.37
2018-12-08T08:50:18.476Z,9.00
2018-12-08T08:52:47.753Z,8.50
2018-12-08T08:55:16.426Z,7.27
2018-12-08T08:57:45.265Z,7.03
2018-12-08T09:00:13.447Z,6.57
2018-12-08T09:02:41.667Z,6.93
2018-12-08T09:05:10.185Z,6.10
2018-12-08T09:07:38.389Z,6.23
2018-12-08T09:10:08.804Z,6.23
2018-12-08T09:12:37.401Z,6.77
2018-12-08T09:15:07.606Z,6.30
2018-12-08T09:17:35.963Z,6.90
2018-12-08T09:20:06.875Z,6.57
2018-12-08T09:22:34.976Z,7.23
2018-12-08T09:25:03.519Z,6.53
2018-12-08T09:27:32.484Z,7.00
2018-12-08T09:30:01.062Z,6.30
2018-12-08T09:32:29.465Z,6.40
2018-12-08T09:34:58.576Z,5.97
2018-12-08T09:37:26.644Z,6.47
2018-12-08T09:39:54.715Z,5.97
2018-12-08T09:42:23.676Z,6.33
2018-12-08T09:44:52.206Z,6.27
2018-12-08T09:47:22.420Z,6.57
2018-12-08T09:49:50.956Z,5.53
2018-12-08T09:52:19.436Z,6.00
2018-12-08T09:54:47.591Z,4.87
2018-12-08T09:57:16.513Z,6.00
2018-12-08T09:59:44.555Z,5.93
2018-12-08T10:02:12.617Z,5.77
2018-12-08T10:04:41.639Z,6.23
2018-12-08T10:07:10.131Z,5.13
2018-12-08T10:09:38.720Z,5.70
2018-12-08T10:12:07.507Z,6.00
2018-12-08T10:14:35.979Z,6.00
2018-12-08T10:17:04.783Z,5.10
2018-12-08T10:19:33.455Z,6.40
2018-12-08T10:22:01.523Z,5.90
2018-12-08T10:24:29.658Z,5.50
2018-12-08T10:26:57.790Z,5.17
2018-12-08T10:29:26.809Z,5.10
2018-12-08T10:31:55.492Z,4.97
2018-12-08T10:34:23.563Z,4.77
2018-12-08T10:36:51.677Z,5.30
2018-12-08T10:39:20.169Z,4.87
2018-12-08T10:41:48.523Z,5.10
2018-12-08T10:44:16.663Z,5.80
2018-12-08T10:46:45.249Z,5.40
2018-12-08T10:49:13.776Z,5.00
2018-12-08T10:51:42.503Z,6.00
2018-12-08T10:54:10.834Z,5.67
2018-12-08T10:56:38.889Z,5.20
2018-12-08T10:59:07.391Z,5.93
2018-12-08T11:01:41.091Z,5.80
2018-12-08T11:04:09.820Z,6.07
2018-12-08T11:06:38.829Z,5.87
2018-12-08T11:09:07.770Z,6.87
2018-12-08T11:11:35.940Z,6.00
2018-12-08T11:14:04.200Z,6.20
2018-12-08T11:16:32.792Z,6.77
2018-12-08T11:19:01.267Z,6.47
2018-12-08T11:21:29.388Z,7.30
2018-12-08T11:23:57.463Z,7.30
2018-12-08T11:26:26.066Z,6.53
2018-12-08T11:28:54.496Z,6.73
2018-12-08T11:31:23.355Z,5.93
2018-12-08T11:33:51.436Z,6.60
2018-12-08T11:36:19.492Z,6.23
2018-12-08T11:38:48.210Z,6.67
2018-12-08T11:41:16.291Z,7.33
2018-12-08T11:43:44.848Z,6.63
2018-12-08T11:46:13.772Z,5.97
2018-12-08T11:48:41.813Z,6.03
2018-12-08T11:51:09.935Z,5.57
2018-12-08T11:53:38.351Z,5.60
2018-12-08T11:56:06.440Z,5.40
2018-12-08T11:58:34.576Z,5.03
2018-12-08T12:01:02.720Z,5.27
2018-12-08T12:03:30.783Z,4.37
2018-12-08T12:05:59.220Z,3.90
2018-12-08T12:08:27.778Z,4.30
2018-12-08T12:10:55.819Z,4.70
2018-12-08T12:13:24.245Z,4.37
2018-12-08T12:15:52.331Z,4.33
2018-12-08T12:18:20.774Z,5.33
2018-12-08T12:20:49.687Z,5.50
2018-12-08T12:23:17.739Z,5.20
2018-12-08T12:25:45.868Z,5.20
2018-12-08T12:28:13.920Z,5.73
2018-12-08T12:30:42.019Z,5.60
2018-12-08T12:33:10.443Z,5.50
2018-12-08T12:35:39.261Z,5.30
2018-12-08T12:38:07.825Z,6.03
2018-12-08T12:40:35.912Z,5.87
2018-12-08T12:43:04.219Z,4.90
2018-12-08T12:45:32.747Z,4.63
2018-12-08T12:48:00.788Z,5.20
2018-12-08T12:50:29.402Z,5.20
2018-12-08T12:52:57.468Z,4.33
2018-12-08T12:55:25.513Z,3.73
2018-12-08T12:57:54.051Z,4.30
2018-12-08T13:00:22.160Z,5.33
2018-12-08T13:02:50.585Z,3.80
2018-12-08T13:05:19.191Z,4.10
2018-12-08T13:07:47.267Z,4.30
2018-12-08T13:10:15.376Z,4.07
2018-12-08T13:12:43.500Z,3.73
2018-12-08T13:15:11.551Z,3.83
2018-12-08T13:17:39.918Z,4.00
2018-12-08T13:20:08.508Z,3.20
2018-12-08T13:22:36.557Z,3.33
2018-12-08T13:25:16.270Z,3.33
2018-12-08T13:27:44.836Z,3.23
2018-12-08T13:30:13.059Z,3.20
2018-12-08T13:32:41.379Z,2.83
2018-12-08T13:35:13.597Z,2.80
2018-12-08T13:37:42.372Z,3.10
2018-12-08T13:40:10.453Z,3.27
2018-12-08T13:42:38.520Z,3.27
2018-12-08T13:45:15.355Z,2.77
2018-12-08T13:47:44.178Z,3.00
2018-12-08T13:50:13.242Z,2.70
2018-12-08T13:52:41.304Z,2.80
2018-12-08T13:55:09.391Z,2.63
2018-12-08T13:57:37.611Z,2.70
2018-12-08T14:00:06.254Z,3.03
2018-12-08T14:02:34.319Z,3.13
2018-12-08T14:05:02.400Z,2.90
2018-12-08T14:07:30.460Z,2.80
2018-12-08T14:09:58.897Z,3.30
2018-12-08T14:12:26.960Z,2.70
2018-12-08T14:14:55.031Z,3.53
2018-12-08T14:17:23.203Z,3.30
2018-12-08T14:19:51.321Z,2.60
2018-12-08T14:22:19.668Z,3.10
2018-12-08T14:24:47.707Z,2.80
2018-12-08T14:27:15.823Z,3.83
2018-12-08T14:29:43.895Z,2.93
2018-12-08T14:32:12.683Z,3.50
2018-12-08T14:34:41.411Z,3.23
2018-12-08T14:37:10.064Z,3.10
2018-12-08T14:39:38.145Z,3.83
2018-12-08T14:42:06.383Z,3.80
2018-12-08T14:44:34.466Z,4.20
2018-12-08T14:47:02.588Z,3.00
2018-12-08T14:49:30.681Z,3.33
2018-12-08T14:51:58.757Z,3.70
2018-12-08T14:54:26.799Z,3.53
2018-12-08T14:56:55.132Z,3.43
2018-12-08T14:59:23.690Z,3.23
2018-12-08T15:01:52.372Z,3.10
2018-12-08T15:04:20.423Z,3.70
2018-12-08T15:06:48.480Z,3.10
2018-12-08T15:09:17.046Z,3.27
2018-12-08T15:11:45.157Z,3.20
2018-12-08T15:14:13.548Z,4.17
2018-12-08T15:16:41.648Z,3.30
2018-12-08T15:19:10.195Z,3.40
2018-12-08T15:21:38.266Z,3.40
2018-12-08T15:24:06.343Z,3.33
2018-12-08T15:26:34.438Z,3.37
2018-12-08T15:29:02.488Z,3.33
2018-12-08T15:31:30.531Z,3.40
2018-12-08T15:33:58.920Z,3.23
2018-12-08T15:36:27.018Z,3.57
2018-12-08T15:38:55.428Z,3.57
2018-12-08T15:41:23.491Z,3.93
2018-12-08T15:43:51.592Z,3.60
2018-12-08T15:46:19.933Z,3.40
2018-12-08T15:48:48.005Z,3.57
2018-12-08T15:51:16.055Z,4.33
2018-12-08T15:53:44.418Z,3.30
2018-12-08T15:56:12.480Z,4.00
2018-12-08T15:58:41.057Z,3.37
2018-12-08T16:01:10.031Z,3.60
2018-12-08T16:03:38.471Z,3.40
2018-12-08T16:06:06.587Z,4.07
2018-12-08T16:08:34.921Z,3.50
2018-12-08T16:11:03.028Z,3.60
2018-12-08T16:13:31.465Z,3.37
2018-12-08T16:16:00.356Z,3.90
2018-12-08T16:18:28.542Z,3.93
2018-12-08T16:20:57.106Z,3.93
2018-12-08T16:23:25.779Z,3.60
2018-12-08T16:25:54.789Z,3.10
2018-12-08T16:28:23.148Z,3.43
2018-12-08T16:30:51.855Z,3.10
2018-12-08T16:33:20.105Z,3.23
2018-12-08T16:35:48.389Z,3.43
2018-12-08T16:38:16.483Z,3.87
2018-12-08T16:40:45.392Z,3.23
2018-12-08T16:43:13.444Z,3.80
2018-12-08T16:45:41.550Z,3.23
2018-12-08T16:48:10.002Z,2.93
2018-12-08T16:50:38.079Z,3.37
2018-12-08T16:53:06.993Z,3.73
2018-12-08T16:55:35.043Z,3.53
2018-12-08T16:58:03.105Z,3.50
2018-12-08T17:00:31.559Z,2.83
2018-12-08T17:03:00.110Z,3.60
2018-12-08T17:05:28.200Z,4.43
2018-12-08T17:07:56.325Z,4.23
2018-12-08T17:10:25.147Z,3.13
2018-12-08T17:12:53.407Z,3.70
2018-12-08T17:15:21.465Z,3.83
2018-12-08T17:17:49.871Z,3.63
2018-12-08T17:20:18.759Z,3.50
2018-12-08T17:22:48.266Z,3.67
2018-12-08T17:25:18.510Z,4.27
2018-12-08T17:27:47.171Z,3.73
2018-12-08T17:30:17.447Z,3.60
2018-12-08T17:32:47.717Z,4.27
2018-12-08T17:35:16.228Z,4.57
2018-12-08T17:37:44.367Z,3.80
2018-12-08T17:40:13.017Z,3.60
2018-12-08T17:42:41.556Z,3.70
2018-12-08T17:45:11.596Z,3.97
2018-12-08T17:47:40.279Z,3.50
2018-12-08T17:50:08.734Z,3.80
2018-12-08T17:52:37.100Z,4.30
2018-12-08T17:55:05.764Z,3.77
2018-12-08T17:57:34.126Z,3.17
2018-12-08T18:00:02.239Z,4.23
2018-12-08T18:02:30.283Z,3.80
2018-12-08T18:04:59.183Z,3.60
2018-12-08T18:07:27.624Z,3.67
2018-12-08T18:09:55.703Z,3.07
2018-12-08T18:12:25.218Z,2.90
2018-12-08T18:14:53.924Z,4.13
2018-12-08T18:17:22.013Z,4.20
2018-12-08T18:19:50.109Z,3.90
2018-12-08T18:22:19.586Z,4.37
2018-12-08T18:24:51.820Z,3.57
2018-12-08T18:27:20.427Z,3.57
2018-12-08T18:29:48.822Z,3.67
2018-12-08T18:35:02.968Z,3.97
2018-12-08T18:37:37.062Z,4.30
2018-12-08T18:40:05.889Z,3.83
2018-12-08T18:42:39.346Z,3.23
2018-12-08T18:45:13.437Z,4.20
2018-12-08T18:47:49.755Z,3.90
2018-12-08T18:50:18.524Z,3.80
2018-12-08T18:52:47.464Z,4.13
2018-12-08T18:55:16.039Z,4.37
2018-12-08T18:57:44.143Z,3.67
2018-12-08T19:00:12.537Z,4.07
2018-12-08T19:02:40.594Z,4.30
2018-12-08T19:05:09.351Z,3.80
2018-12-08T19:07:37.446Z,4.37
2018-12-08T19:10:06.148Z,3.77
2018-12-08T19:12:34.220Z,4.37
2018-12-08T19:15:03.076Z,3.40
2018-12-08T19:17:31.127Z,3.40
2018-12-08T19:19:59.252Z,4.23
2018-12-08T19:22:27.334Z,3.60
2018-12-08T19:24:56.876Z,3.60
2018-12-08T19:27:27.880Z,3.40
2018-12-08T19:29:56.747Z,4.30
2018-12-08T19:32:24.912Z,4.10
2018-12-08T19:34:52.990Z,4.23
2018-12-08T19:37:21.050Z,4.13
2018-12-08T19:39:49.091Z,4.53
2018-12-08T19:42:17.175Z,3.83
2018-12-08T19:44:45.600Z,3.77
2018-12-08T19:47:14.718Z,4.37
2018-12-08T19:53:04.932Z,3.87
2018-12-08T19:55:32.999Z,4.07
2018-12-08T19:58:01.072Z,3.97
2018-12-08T20:00:30.012Z,4.07
2018-12-08T20:02:58.968Z,3.73
2018-12-08T20:05:27.521Z,3.47
2018-12-08T20:07:55.625Z,4.00
2018-12-08T20:10:23.687Z,4.20
2018-12-08T20:12:51.744Z,4.00
2018-12-08T20:15:20.094Z,4.23
2018-12-08T20:17:48.735Z,3.90
2018-12-08T20:20:16.804Z,3.77
2018-12-08T20:22:44.863Z,3.63
2018-12-08T20:25:12.994Z,4.07
2018-12-08T20:27:41.092Z,4.17
2018-12-08T20:30:09.140Z,3.93
2018-12-08T20:32:37.231Z,4.33
2018-12-08T20:35:05.932Z,4.27
2018-12-08T20:37:34.395Z,4.33
2018-12-08T20:40:02.524Z,4.23
2018-12-08T20:42:30.850Z,4.10
2018-12-08T20:44:58.900Z,4.40
2018-12-08T20:47:27.001Z,4.43
2018-12-08T20:49:55.052Z,5.10
2018-12-08T20:52:23.621Z,4.53
2018-12-08T20:54:52.295Z,4.73
2018-12-08T20:57:21.196Z,5.00
2018-12-08T20:59:49.251Z,5.03
2018-12-08T21:02:17.748Z,5.00
2018-12-08T21:04:45.861Z,4.60
2018-12-08T21:07:13.924Z,6.30
2018-12-08T21:09:43.778Z,4.57
2018-12-08T21:12:12.677Z,5.93
2018-12-08T21:14:41.584Z,4.80
2018-12-08T21:17:09.636Z,4.97
2018-12-08T21:19:37.830Z,5.17
2018-12-08T21:22:08.035Z,4.43
2018-12-08T21:24:38.179Z,5.97
2018-12-08T21:33:17.875Z,5.30
2018-12-08T21:35:45.996Z,5.57
2018-12-08T21:38:14.224Z,6.17
2018-12-08T21:40:50.593Z,6.33
2018-12-08T21:43:24.214Z,5.90
2018-12-08T21:45:56.667Z,5.47
2018-12-08T21:48:25.244Z,5.97
2018-12-08T21:50:54.107Z,6.30
2018-12-08T21:53:25.597Z,6.33
2018-12-08T21:55:54.128Z,6.47
2018-12-08T21:58:22.620Z,6.03
2018-12-08T22:00:50.692Z,6.33
2018-12-08T22:03:19.275Z,6.20
2018-12-08T22:05:47.396Z,6.17
2018-12-08T22:08:17.560Z,6.20
2018-12-08T22:10:46.169Z,6.57
2018-12-08T22:13:14.768Z,6.23
2018-12-08T22:15:43.715Z,6.37
2018-12-08T22:18:11.814Z,6.37
2018-12-08T22:20:39.883Z,6.90
2018-12-08T22:23:07.989Z,6.50
2018-12-08T22:25:36.527Z,7.47
2018-12-08T22:28:04.892Z,7.03
2018-12-08T22:30:33.183Z,7.73
2018-12-08T22:33:01.663Z,7.97
2018-12-08T22:35:30.012Z,8.17
2018-12-08T22:37:58.096Z,8.20
2018-12-08T22:40:26.413Z,8.97
2018-12-08T22:42:54.871Z,9.33
2018-12-08T22:45:23.771Z,9.30
2018-12-08T22:47:52.099Z,9.47
2018-12-08T22:50:20.163Z,11.13
2018-12-08T22:52:48.488Z,14.57
2018-12-08T22:55:16.556Z,13.70
2018-12-08T22:57:44.637Z,11.57
2018-12-08T23:00:20.892Z,11.97
2018-12-08T23:02:51.091Z,11.50
2018-12-08T23:05:19.438Z,12.87
2018-12-08T23:07:47.524Z,13.27
2018-12-08T23:10:16.035Z,14.10
2018-12-08T23:12:44.135Z,14.20
2018-12-08T23:15:12.408Z,12.00
2018-12-08T23:17:41.251Z,13.00
2018-12-08T23:20:09.880Z,12.77
2018-12-08T23:22:37.931Z,13.00
2018-12-08T23:25:06.487Z,13.37
2018-12-08T23:27:34.984Z,13.10
2018-12-08T23:30:05.793Z,14.83
2018-12-08T23:32:34.315Z,14.10
2018-12-08T23:35:02.965Z,13.00
2018-12-08T23:37:32.077Z,13.63
2018-12-08T23:40:00.287Z,14.97
2018-12-08T23:42:31.084Z,14.43
2018-12-08T23:44:59.591Z,14.53
2018-12-08T23:47:27.736Z,14.63
2018-12-08T23:49:56.772Z,16.00
2018-12-08T23:52:24.867Z,13.57
2018-12-08T23:54:53.255Z,13.77
2018-12-08T23:57:21.653Z,13.60
2018-12-08T23:59:50.232Z,13.43
